createdAt,value
2023-04-17T00:02:30.031Z,87.38
2023-04-17T00:04:58.512Z,87.42
2023-04-17T00:07:28.547Z,87.54
2023-04-17T00:09:56.936Z,86.76
2023-04-17T00:12:29.705Z,85.96
2023-04-17T00:14:57.986Z,86.59
2023-04-17T00:17:28.541Z,87.71
2023-04-17T00:19:56.816Z,87.86
2023-04-17T00:22:25.018Z,86.61
2023-04-17T00:24:53.620Z,86.73
2023-04-17T00:27:23.453Z,87.00
2023-04-17T00:29:53.768Z,86.35
2023-04-17T00:32:22.485Z,87.27
2023-04-17T00:34:53.076Z,87.04
2023-04-17T00:37:22.642Z,87.41
2023-04-17T00:39:50.896Z,87.19
2023-04-17T00:42:19.946Z,87.23
2023-04-17T00:44:48.137Z,88.30
2023-04-17T00:47:18.778Z,89.54
2023-04-17T00:49:48.153Z,90.15
2023-04-17T00:52:23.497Z,91.50
2023-04-17T00:54:59.636Z,90.74
2023-04-17T00:57:28.743Z,91.12
2023-04-17T00:59:58.618Z,90.75
2023-04-17T01:02:28.753Z,91.83
2023-04-17T01:04:57.024Z,90.74
2023-04-17T01:07:26.411Z,90.91
2023-04-17T01:09:56.616Z,90.73
2023-04-17T01:12:26.033Z,91.19
2023-04-17T01:14:55.027Z,91.81
2023-04-17T01:17:26.358Z,91.90
2023-04-17T01:19:56.989Z,92.86
2023-04-17T01:22:25.215Z,93.00
2023-04-17T01:25:04.448Z,93.13
2023-04-17T01:27:33.047Z,92.83
2023-04-17T01:30:01.694Z,93.72
2023-04-17T01:32:30.689Z,95.04
2023-04-17T01:35:00.185Z,95.69
2023-04-17T01:37:28.763Z,97.08
2023-04-17T01:39:57.379Z,96.77
2023-04-17T01:42:28.126Z,97.36
2023-04-17T01:44:56.916Z,98.01
2023-04-17T01:47:25.467Z,96.86
2023-04-17T01:49:53.768Z,97.12
2023-04-17T01:52:22.154Z,97.37
2023-04-17T01:54:50.528Z,97.68
2023-04-17T01:57:19.182Z,96.45
2023-04-17T01:59:49.908Z,96.62
2023-04-17T02:02:20.279Z,96.80
2023-04-17T02:04:48.723Z,96.25
2023-04-17T02:07:17.644Z,97.05
2023-04-17T02:09:46.450Z,97.52
2023-04-17T02:12:14.879Z,97.70
2023-04-17T02:14:43.060Z,97.20
2023-04-17T02:17:12.765Z,97.54
2023-04-17T02:19:41.607Z,98.25
2023-04-17T02:22:09.982Z,97.23
2023-04-17T02:24:38.690Z,96.50
2023-04-17T02:27:07.827Z,96.96
2023-04-17T02:29:36.562Z,96.45
2023-04-17T02:32:05.412Z,96.93
2023-04-17T02:34:35.644Z,96.33
2023-04-17T02:37:03.930Z,97.51
2023-04-17T02:39:34.071Z,96.46
2023-04-17T02:42:03.181Z,97.44
2023-04-17T02:44:31.618Z,97.84
2023-04-17T02:46:59.850Z,97.25
2023-04-17T02:49:28.392Z,97.71
2023-04-17T02:51:58.123Z,98.55
2023-04-17T02:54:26.575Z,98.69
2023-04-17T02:56:58.744Z,98.00
2023-04-17T02:59:27.382Z,97.82
2023-04-17T03:01:55.891Z,97.76
2023-04-17T03:04:24.730Z,97.98
2023-04-17T03:06:53.121Z,97.94
2023-04-17T03:09:23.954Z,97.76
2023-04-17T03:11:52.237Z,98.35
2023-04-17T03:14:23.760Z,99.67
2023-04-17T03:16:52.193Z,100.00
2023-04-17T03:19:20.605Z,100.00
2023-04-17T03:21:49.238Z,100.00
2023-04-17T03:24:19.842Z,100.00
2023-04-17T03:26:49.542Z,100.00
2023-04-17T03:29:19.030Z,100.00
2023-04-17T03:31:50.267Z,100.00
2023-04-17T03:34:19.429Z,100.00
2023-04-17T03:36:47.970Z,100.00
2023-04-17T03:39:18.956Z,100.00
2023-04-17T03:41:48.724Z,100.00
2023-04-17T03:44:20.560Z,100.00
2023-04-17T03:46:48.748Z,100.00
2023-04-17T03:49:19.646Z,100.00
2023-04-17T03:51:48.074Z,100.00
2023-04-17T03:54:19.529Z,100.00
2023-04-17T03:56:49.402Z,100.00
2023-04-17T03:59:20.272Z,100.00
2023-04-17T04:01:48.857Z,100.00
2023-04-17T04:04:17.542Z,100.00
2023-04-17T04:06:47.362Z,100.00
2023-04-17T04:09:15.803Z,100.00
2023-04-17T04:11:44.198Z,100.00
2023-04-17T04:14:14.015Z,100.00
2023-04-17T04:16:42.451Z,100.00
2023-04-17T04:19:11.933Z,100.00
2023-04-17T04:21:42.196Z,100.00
2023-04-17T04:24:14.542Z,100.00
2023-04-17T04:26:47.536Z,100.00
2023-04-17T04:29:18.643Z,100.00
2023-04-17T04:31:51.111Z,100.00
2023-04-17T04:34:19.724Z,100.00
2023-04-17T04:36:51.138Z,100.00
2023-04-17T04:39:31.239Z,100.00
2023-04-17T04:42:06.247Z,100.00
2023-04-17T04:44:36.594Z,100.00
2023-04-17T04:47:05.157Z,100.00
2023-04-17T04:49:33.982Z,100.00
2023-04-17T04:52:02.801Z,100.00
2023-04-17T04:54:31.235Z,100.00
2023-04-17T04:57:00.150Z,100.00
2023-04-17T04:59:28.858Z,100.00
2023-04-17T05:01:58.956Z,100.00
2023-04-17T05:04:27.661Z,100.00
2023-04-17T05:06:57.243Z,100.00
2023-04-17T05:09:26.154Z,100.00
2023-04-17T05:11:55.744Z,99.63
2023-04-17T05:14:24.417Z,100.00
2023-04-17T05:16:53.309Z,100.00
2023-04-17T05:19:23.566Z,100.00
2023-04-17T05:21:51.844Z,100.00
2023-04-17T05:24:20.573Z,99.72
2023-04-17T05:26:48.748Z,98.80
2023-04-17T05:29:17.746Z,98.89
2023-04-17T05:31:46.311Z,98.59
2023-04-17T05:34:14.842Z,99.45
2023-04-17T05:36:44.523Z,98.44
2023-04-17T05:39:13.260Z,97.81
2023-04-17T05:41:41.656Z,97.58
2023-04-17T05:44:09.924Z,97.79
2023-04-17T05:46:38.545Z,97.32
2023-04-17T05:49:07.754Z,96.36
2023-04-17T05:51:36.246Z,95.23
2023-04-17T05:54:10.291Z,95.24
2023-04-17T05:56:39.006Z,94.24
2023-04-17T05:59:09.960Z,93.61
2023-04-17T06:01:39.676Z,90.92
2023-04-17T06:04:08.487Z,92.17
2023-04-17T06:06:37.238Z,89.30
2023-04-17T06:09:08.242Z,86.09
2023-04-17T06:11:36.630Z,85.92
2023-04-17T06:14:05.635Z,84.84
2023-04-17T06:16:34.313Z,84.62
2023-04-17T06:19:02.977Z,82.33
2023-04-17T06:21:34.916Z,81.77
2023-04-17T06:24:04.139Z,79.94
2023-04-17T06:26:35.463Z,78.90
2023-04-17T06:29:05.075Z,79.39
2023-04-17T06:31:33.716Z,78.68
2023-04-17T06:34:02.451Z,77.62
2023-04-17T06:36:31.093Z,76.32
2023-04-17T06:39:02.762Z,75.75
2023-04-17T06:41:31.348Z,76.73
2023-04-17T06:44:01.995Z,74.90
2023-04-17T06:46:30.551Z,74.25
2023-04-17T06:49:02.855Z,72.21
2023-04-17T06:51:32.004Z,71.16
2023-04-17T06:54:00.526Z,69.62
2023-04-17T06:56:28.919Z,69.42
2023-04-17T06:58:58.126Z,69.33
2023-04-17T07:01:29.683Z,68.49
2023-04-17T07:03:59.094Z,67.20
2023-04-17T07:06:27.788Z,68.50
2023-04-17T07:09:02.045Z,67.56
2023-04-17T07:11:30.995Z,65.15
2023-04-17T07:13:59.832Z,62.98
2023-04-17T07:16:29.631Z,62.23
2023-04-17T07:18:58.225Z,63.72
2023-04-17T07:21:27.089Z,61.53
2023-04-17T07:23:56.531Z,61.60
2023-04-17T07:26:26.020Z,60.45
2023-04-17T07:28:54.497Z,59.56
2023-04-17T07:31:22.952Z,57.97
2023-04-17T07:33:52.891Z,55.53
2023-04-17T07:36:21.355Z,57.34
2023-04-17T07:38:49.958Z,54.77
2023-04-17T07:41:19.108Z,53.33
2023-04-17T07:43:47.685Z,53.21
2023-04-17T07:46:18.755Z,53.01
2023-04-17T07:48:48.081Z,53.00
2023-04-17T07:51:21.101Z,53.53
2023-04-17T07:53:49.634Z,54.14
2023-04-17T07:56:18.902Z,53.00
2023-04-17T07:58:47.810Z,53.24
2023-04-17T08:01:20.185Z,52.46
2023-04-17T08:03:49.482Z,53.07
2023-04-17T08:06:19.775Z,53.25
2023-04-17T08:08:48.316Z,52.05
2023-04-17T08:11:19.092Z,51.76
2023-04-17T08:13:47.416Z,51.70
2023-04-17T08:16:15.989Z,50.99
2023-04-17T08:18:44.801Z,50.39
2023-04-17T08:21:13.268Z,49.69
2023-04-17T08:23:44.618Z,48.28
2023-04-17T08:26:13.082Z,48.70
2023-04-17T08:28:41.492Z,48.91
2023-04-17T08:31:11.022Z,48.70
2023-04-17T08:33:39.785Z,47.59
2023-04-17T08:36:10.632Z,47.13
2023-04-17T08:38:39.087Z,45.84
2023-04-17T08:41:19.596Z,45.39
2023-04-17T08:43:50.428Z,44.31
2023-04-17T08:46:23.584Z,45.33
2023-04-17T08:48:52.663Z,45.64
2023-04-17T08:51:21.041Z,43.74
2023-04-17T08:53:49.670Z,44.08
2023-04-17T08:56:19.541Z,44.19
2023-04-17T08:58:47.968Z,43.81
2023-04-17T09:01:20.874Z,43.77
2023-04-17T09:03:52.299Z,39.28
2023-04-17T09:06:20.926Z,39.52
2023-04-17T09:09:06.943Z,39.54
2023-04-17T09:11:37.144Z,40.01
2023-04-17T09:14:07.682Z,40.65
2023-04-17T09:16:36.359Z,39.96
2023-04-17T09:19:08.116Z,39.33
2023-04-17T09:21:36.692Z,39.68
2023-04-17T09:24:07.925Z,39.28
2023-04-17T09:26:38.184Z,39.15
2023-04-17T09:29:12.112Z,38.44
2023-04-17T09:31:42.516Z,38.03
2023-04-17T09:34:12.396Z,38.37
2023-04-17T09:36:42.184Z,38.62
2023-04-17T09:39:20.943Z,37.84
2023-04-17T09:41:51.482Z,36.92
2023-04-17T09:44:27.221Z,37.42
2023-04-17T09:46:56.203Z,38.19
2023-04-17T09:49:35.187Z,37.15
2023-04-17T09:52:04.795Z,36.65
2023-04-17T09:54:38.293Z,36.37
2023-04-17T09:57:10.520Z,36.49
2023-04-17T09:59:41.368Z,36.64
2023-04-17T10:02:11.838Z,37.28
2023-04-17T10:04:42.149Z,37.87
2023-04-17T10:07:10.705Z,35.94
2023-04-17T10:09:41.619Z,36.14
2023-04-17T10:12:16.264Z,36.99
2023-04-17T10:14:47.107Z,36.17
2023-04-17T10:17:26.444Z,35.91
2023-04-17T10:19:55.268Z,36.73
2023-04-17T10:22:41.299Z,35.79
2023-04-17T10:25:25.351Z,35.67
2023-04-17T10:28:00.027Z,34.70
2023-04-17T10:30:54.733Z,36.33
2023-04-17T10:33:26.286Z,35.78
2023-04-17T10:35:55.212Z,35.93
2023-04-17T10:38:35.445Z,35.91
2023-04-17T10:41:05.689Z,35.91
2023-04-17T10:43:35.248Z,35.84
2023-04-17T10:46:05.858Z,35.68
2023-04-17T10:48:36.600Z,35.97
2023-04-17T10:51:38.317Z,35.56
2023-04-17T10:54:13.858Z,35.29
2023-04-17T10:56:43.229Z,34.31
2023-04-17T10:59:14.980Z,33.10
2023-04-17T11:02:01.406Z,32.72
2023-04-17T11:04:31.771Z,32.75
2023-04-17T11:07:00.580Z,31.79
2023-04-17T11:09:30.308Z,31.77
2023-04-17T11:12:02.261Z,33.11
2023-04-17T11:14:32.704Z,32.29
2023-04-17T11:17:16.025Z,33.49
2023-04-17T11:19:46.832Z,33.51
2023-04-17T11:22:22.207Z,33.50
2023-04-17T11:24:52.714Z,33.65
2023-04-17T11:27:21.232Z,33.02
2023-04-17T11:29:51.092Z,32.35
2023-04-17T11:32:21.894Z,32.66
2023-04-17T11:34:50.720Z,32.56
2023-04-17T11:37:21.808Z,33.44
2023-04-17T11:39:51.122Z,32.01
2023-04-17T11:42:27.882Z,31.01
2023-04-17T11:45:06.399Z,31.33
2023-04-17T11:47:34.994Z,31.28
2023-04-17T11:50:03.727Z,31.58
2023-04-17T11:52:32.244Z,31.78
2023-04-17T11:55:00.563Z,31.59
2023-04-17T11:57:28.931Z,31.44
2023-04-17T11:59:58.232Z,30.73
2023-04-17T12:02:35.235Z,30.17
2023-04-17T12:05:17.266Z,30.47
2023-04-17T12:07:46.275Z,30.71
2023-04-17T12:10:14.795Z,31.88
2023-04-17T12:12:45.342Z,32.07
2023-04-17T12:15:13.842Z,31.39
2023-04-17T12:17:43.845Z,30.75
2023-04-17T12:20:13.792Z,30.51
2023-04-17T12:22:42.855Z,30.46
2023-04-17T12:25:13.101Z,30.51
2023-04-17T12:27:41.481Z,31.16
2023-04-17T12:30:11.916Z,30.71
2023-04-17T12:32:40.808Z,30.94
2023-04-17T12:35:11.336Z,30.47
2023-04-17T12:37:40.015Z,30.51
2023-04-17T12:40:10.112Z,30.70
2023-04-17T12:42:48.269Z,29.85
2023-04-17T12:45:21.409Z,29.63
2023-04-17T12:47:50.071Z,29.63
2023-04-17T12:50:22.658Z,29.42
2023-04-17T12:52:51.051Z,30.44
2023-04-17T12:55:19.704Z,30.21
2023-04-17T12:57:47.962Z,29.59
2023-04-17T13:00:17.864Z,28.70
2023-04-17T13:02:46.274Z,29.43
2023-04-17T13:05:19.806Z,28.38
2023-04-17T13:07:49.832Z,28.41
2023-04-17T13:10:21.346Z,28.68
2023-04-17T13:12:49.855Z,28.61
2023-04-17T13:15:22.091Z,29.06
2023-04-17T13:17:51.266Z,28.98
2023-04-17T13:20:19.960Z,28.98
2023-04-17T13:22:49.835Z,29.17
2023-04-17T13:25:19.584Z,29.07
2023-04-17T13:27:47.982Z,28.59
2023-04-17T13:30:18.986Z,28.78
2023-04-17T13:32:47.428Z,28.60
2023-04-17T13:35:16.355Z,29.34
2023-04-17T13:37:45.425Z,29.08
2023-04-17T13:40:17.505Z,28.98
2023-04-17T13:42:46.250Z,28.34
2023-04-17T13:45:19.318Z,28.29
2023-04-17T13:47:50.090Z,27.57
2023-04-17T13:50:20.657Z,27.46
2023-04-17T13:52:48.879Z,27.74
2023-04-17T13:55:20.227Z,28.22
2023-04-17T13:57:48.863Z,29.03
2023-04-17T14:00:22.720Z,29.28
2023-04-17T14:02:51.397Z,29.01
2023-04-17T14:05:20.074Z,28.30
2023-04-17T14:07:48.364Z,28.52
2023-04-17T14:10:21.001Z,28.51
2023-04-17T14:12:49.482Z,28.18
2023-04-17T14:15:21.861Z,28.41
2023-04-17T14:17:50.626Z,28.60
2023-04-17T14:20:20.268Z,28.88
2023-04-17T14:22:48.634Z,29.54
2023-04-17T14:25:24.485Z,29.13
2023-04-17T14:27:53.754Z,29.29
2023-04-17T14:30:22.271Z,28.85
2023-04-17T14:32:52.126Z,28.44
2023-04-17T14:35:21.028Z,28.19
2023-04-17T14:37:49.266Z,28.56
2023-04-17T14:40:20.573Z,28.49
2023-04-17T14:42:54.529Z,28.67
2023-04-17T14:45:23.200Z,28.54
2023-04-17T14:47:52.292Z,28.99
2023-04-17T14:50:20.838Z,28.88
2023-04-17T14:53:01.436Z,29.67
2023-04-17T14:55:30.537Z,29.17
2023-04-17T14:58:01.646Z,29.21
2023-04-17T15:00:30.368Z,28.83
